sensor_id;sensor_type;location;lat;lon;timestamp;temperature;humidity
66271;DHT22;53063;39.614;8.814;2023-07-29T00:01:01;24.80;70.80
66271;DHT22;53063;39.614;8.814;2023-07-29T00:03:27;24.80;71.10
66271;DHT22;53063;39.614;8.814;2023-07-29T00:05:55;24.70;71.80
66271;DHT22;53063;39.614;8.814;2023-07-29T00:08:21;24.70;72.10
66271;DHT22;53063;39.614;8.814;2023-07-29T00:10:47;24.70;72.70
66271;DHT22;53063;39.614;8.814;2023-07-29T00:13:13;24.70;73.80
66271;DHT22;53063;39.614;8.814;2023-07-29T00:15:39;24.70;74.60
66271;DHT22;53063;39.614;8.814;2023-07-29T00:18:05;24.70;74.80
66271;DHT22;53063;39.614;8.814;2023-07-29T00:20:30;24.80;75.60
66271;DHT22;53063;39.614;8.814;2023-07-29T00:22:56;24.70;77.20
66271;DHT22;53063;39.614;8.814;2023-07-29T00:25:24;24.60;78.50
66271;DHT22;53063;39.614;8.814;2023-07-29T00:27:49;24.60;79.40
66271;DHT22;53063;39.614;8.814;2023-07-29T00:30:15;24.50;80.00
66271;DHT22;53063;39.614;8.814;2023-07-29T00:32:42;24.60;80.30
66271;DHT22;53063;39.614;8.814;2023-07-29T00:35:08;24.60;80.60
66271;DHT22;53063;39.614;8.814;2023-07-29T00:37:34;24.60;80.70
66271;DHT22;53063;39.614;8.814;2023-07-29T00:40:00;24.60;81.40
66271;DHT22;53063;39.614;8.814;2023-07-29T00:42:26;24.60;82.00
66271;DHT22;53063;39.614;8.814;2023-07-29T00:44:52;24.50;82.80
66271;DHT22;53063;39.614;8.814;2023-07-29T00:47:19;24.40;84.40
66271;DHT22;53063;39.614;8.814;2023-07-29T00:49:48;24.40;85.00
66271;DHT22;53063;39.614;8.814;2023-07-29T00:52:14;24.40;85.30
66271;DHT22;53063;39.614;8.814;2023-07-29T00:54:40;24.50;85.80
66271;DHT22;53063;39.614;8.814;2023-07-29T00:57:08;24.40;86.00
66271;DHT22;53063;39.614;8.814;2023-07-29T00:59:35;24.50;87.20
66271;DHT22;53063;39.614;8.814;2023-07-29T01:02:02;24.50;87.90
66271;DHT22;53063;39.614;8.814;2023-07-29T01:04:31;24.40;89.10
66271;DHT22;53063;39.614;8.814;2023-07-29T01:07:06;24.30;90.20
66271;DHT22;53063;39.614;8.814;2023-07-29T01:09:44;24.20;91.90
66271;DHT22;53063;39.614;8.814;2023-07-29T01:12:34;24.30;92.60
66271;DHT22;53063;39.614;8.814;2023-07-29T01:17:46;24.10;94.70
66271;DHT22;53063;39.614;8.814;2023-07-29T01:20:15;24.20;95.30
66271;DHT22;53063;39.614;8.814;2023-07-29T01:22:41;24.00;96.70
66271;DHT22;53063;39.614;8.814;2023-07-29T01:25:08;24.10;97.70
66271;DHT22;53063;39.614;8.814;2023-07-29T01:27:34;24.10;98.50
66271;DHT22;53063;39.614;8.814;2023-07-29T01:30:00;24.10;99.90
66271;DHT22;53063;39.614;8.814;2023-07-29T01:35:43;24.10;99.90
66271;DHT22;53063;39.614;8.814;2023-07-29T01:38:23;24.10;99.90
66271;DHT22;53063;39.614;8.814;2023-07-29T01:40:51;24.00;99.90
66271;DHT22;53063;39.614;8.814;2023-07-29T01:43:18;24.00;99.90
66271;DHT22;53063;39.614;8.814;2023-07-29T01:45:49;24.00;99.90
66271;DHT22;53063;39.614;8.814;2023-07-29T01:48:16;24.00;99.90
66271;DHT22;53063;39.614;8.814;2023-07-29T01:50:43;24.00;99.90
66271;DHT22;53063;39.614;8.814;2023-07-29T01:53:09;24.00;99.90
66271;DHT22;53063;39.614;8.814;2023-07-29T01:55:35;24.00;99.90
66271;DHT22;53063;39.614;8.814;2023-07-29T01:58:00;24.00;99.90
66271;DHT22;53063;39.614;8.814;2023-07-29T02:00:27;24.00;99.90
66271;DHT22;53063;39.614;8.814;2023-07-29T02:02:53;24.00;99.90
66271;DHT22;53063;39.614;8.814;2023-07-29T02:05:19;24.00;99.90
66271;DHT22;53063;39.614;8.814;2023-07-29T02:07:45;24.00;99.90
66271;DHT22;53063;39.614;8.814;2023-07-29T02:10:11;24.00;99.90
66271;DHT22;53063;39.614;8.814;2023-07-29T02:12:36;23.90;99.90
66271;DHT22;53063;39.614;8.814;2023-07-29T02:15:03;23.90;99.90
66271;DHT22;53063;39.614;8.814;2023-07-29T02:17:30;23.80;99.90
66271;DHT22;53063;39.614;8.814;2023-07-29T02:19:56;23.90;99.90
66271;DHT22;53063;39.614;8.814;2023-07-29T02:22:22;23.80;99.90
66271;DHT22;53063;39.614;8.814;2023-07-29T02:24:48;23.90;99.90
66271;DHT22;53063;39.614;8.814;2023-07-29T02:27:14;23.90;99.90
66271;DHT22;53063;39.614;8.814;2023-07-29T02:29:41;23.90;99.90
66271;DHT22;53063;39.614;8.814;2023-07-29T02:32:07;23.90;99.90
66271;DHT22;53063;39.614;8.814;2023-07-29T02:34:32;23.90;99.90
66271;DHT22;53063;39.614;8.814;2023-07-29T02:36:59;23.80;99.90
66271;DHT22;53063;39.614;8.814;2023-07-29T02:39:24;23.60;99.90
66271;DHT22;53063;39.614;8.814;2023-07-29T02:41:51;23.70;99.90
66271;DHT22;53063;39.614;8.814;2023-07-29T02:44:17;23.80;99.90
66271;DHT22;53063;39.614;8.814;2023-07-29T02:46:43;23.70;99.90
66271;DHT22;53063;39.614;8.814;2023-07-29T02:49:09;23.70;99.90
66271;DHT22;53063;39.614;8.814;2023-07-29T02:51:35;23.60;99.90
66271;DHT22;53063;39.614;8.814;2023-07-29T02:54:01;23.40;99.90
66271;DHT22;53063;39.614;8.814;2023-07-29T02:56:27;23.20;99.90
66271;DHT22;53063;39.614;8.814;2023-07-29T02:58:53;23.20;99.90
66271;DHT22;53063;39.614;8.814;2023-07-29T03:01:19;23.00;99.90
66271;DHT22;53063;39.614;8.814;2023-07-29T03:03:45;22.90;99.90
66271;DHT22;53063;39.614;8.814;2023-07-29T03:06:13;22.90;99.90
66271;DHT22;53063;39.614;8.814;2023-07-29T03:08:39;22.80;99.90
66271;DHT22;53063;39.614;8.814;2023-07-29T03:11:10;22.80;99.90
66271;DHT22;53063;39.614;8.814;2023-07-29T03:13:37;22.70;99.90
66271;DHT22;53063;39.614;8.814;2023-07-29T03:16:10;22.70;99.90
66271;DHT22;53063;39.614;8.814;2023-07-29T03:18:38;22.70;99.90
66271;DHT22;53063;39.614;8.814;2023-07-29T03:21:04;22.60;99.90
66271;DHT22;53063;39.614;8.814;2023-07-29T03:23:33;22.70;99.90
66271;DHT22;53063;39.614;8.814;2023-07-29T03:26:00;22.70;99.90
66271;DHT22;53063;39.614;8.814;2023-07-29T03:28:29;22.70;99.90
66271;DHT22;53063;39.614;8.814;2023-07-29T03:30:56;22.80;99.90
66271;DHT22;53063;39.614;8.814;2023-07-29T03:33:23;22.90;99.90
66271;DHT22;53063;39.614;8.814;2023-07-29T03:35:53;23.00;99.90
66271;DHT22;53063;39.614;8.814;2023-07-29T03:38:19;23.00;99.90
66271;DHT22;53063;39.614;8.814;2023-07-29T03:40:45;22.80;99.90
66271;DHT22;53063;39.614;8.814;2023-07-29T03:43:11;22.60;99.90
66271;DHT22;53063;39.614;8.814;2023-07-29T03:45:37;22.20;99.90
66271;DHT22;53063;39.614;8.814;2023-07-29T03:48:04;22.00;99.90
66271;DHT22;53063;39.614;8.814;2023-07-29T03:50:30;21.90;99.90
66271;DHT22;53063;39.614;8.814;2023-07-29T03:52:56;22.00;99.90
66271;DHT22;53063;39.614;8.814;2023-07-29T03:55:22;22.00;99.90
66271;DHT22;53063;39.614;8.814;2023-07-29T03:57:48;22.00;99.90
66271;DHT22;53063;39.614;8.814;2023-07-29T04:00:14;21.90;99.90
66271;DHT22;53063;39.614;8.814;2023-07-29T04:02:46;21.90;99.90
66271;DHT22;53063;39.614;8.814;2023-07-29T04:05:12;21.80;99.90
66271;DHT22;53063;39.614;8.814;2023-07-29T04:07:38;21.60;99.90
66271;DHT22;53063;39.614;8.814;2023-07-29T04:10:05;21.50;99.90
66271;DHT22;53063;39.614;8.814;2023-07-29T04:12:32;21.30;99.90
66271;DHT22;53063;39.614;8.814;2023-07-29T04:14:58;21.30;99.90
66271;DHT22;53063;39.614;8.814;2023-07-29T04:17:24;21.20;99.90
66271;DHT22;53063;39.614;8.814;2023-07-29T04:19:49;21.20;99.90
66271;DHT22;53063;39.614;8.814;2023-07-29T04:22:17;21.20;99.90
66271;DHT22;53063;39.614;8.814;2023-07-29T04:24:43;21.20;99.90
66271;DHT22;53063;39.614;8.814;2023-07-29T04:27:09;21.20;99.90
66271;DHT22;53063;39.614;8.814;2023-07-29T04:29:35;21.20;99.90
66271;DHT22;53063;39.614;8.814;2023-07-29T04:32:05;21.20;99.90
66271;DHT22;53063;39.614;8.814;2023-07-29T04:34:31;21.10;99.90
66271;DHT22;53063;39.614;8.814;2023-07-29T04:36:57;21.10;99.90
66271;DHT22;53063;39.614;8.814;2023-07-29T04:39:24;21.10;99.90
66271;DHT22;53063;39.614;8.814;2023-07-29T04:41:50;21.20;99.90
66271;DHT22;53063;39.614;8.814;2023-07-29T04:44:16;21.20;99.90
66271;DHT22;53063;39.614;8.814;2023-07-29T04:46:42;21.10;99.90
66271;DHT22;53063;39.614;8.814;2023-07-29T04:49:07;21.00;99.90
66271;DHT22;53063;39.614;8.814;2023-07-29T04:51:33;21.00;99.90
66271;DHT22;53063;39.614;8.814;2023-07-29T04:54:00;21.10;99.90
66271;DHT22;53063;39.614;8.814;2023-07-29T04:56:26;21.20;99.90
66271;DHT22;53063;39.614;8.814;2023-07-29T04:58:52;21.20;99.90
66271;DHT22;53063;39.614;8.814;2023-07-29T05:01:18;21.40;99.90
66271;DHT22;53063;39.614;8.814;2023-07-29T05:03:44;21.40;99.90
66271;DHT22;53063;39.614;8.814;2023-07-29T05:06:12;21.40;99.90
66271;DHT22;53063;39.614;8.814;2023-07-29T05:08:37;21.60;99.90
66271;DHT22;53063;39.614;8.814;2023-07-29T05:11:03;21.60;99.90
66271;DHT22;53063;39.614;8.814;2023-07-29T05:13:29;21.60;99.90
66271;DHT22;53063;39.614;8.814;2023-07-29T05:15:56;21.70;99.90
66271;DHT22;53063;39.614;8.814;2023-07-29T05:18:22;21.70;99.90
66271;DHT22;53063;39.614;8.814;2023-07-29T05:20:49;21.80;99.90
66271;DHT22;53063;39.614;8.814;2023-07-29T05:23:14;21.90;99.90
66271;DHT22;53063;39.614;8.814;2023-07-29T05:25:41;21.90;99.90
66271;DHT22;53063;39.614;8.814;2023-07-29T05:28:07;22.00;99.90
66271;DHT22;53063;39.614;8.814;2023-07-29T05:30:33;22.10;99.90
66271;DHT22;53063;39.614;8.814;2023-07-29T05:33:04;22.20;99.90
66271;DHT22;53063;39.614;8.814;2023-07-29T05:35:30;22.20;99.90
66271;DHT22;53063;39.614;8.814;2023-07-29T05:37:56;22.30;99.90
66271;DHT22;53063;39.614;8.814;2023-07-29T05:40:22;22.40;99.90
66271;DHT22;53063;39.614;8.814;2023-07-29T05:42:48;22.30;99.90
66271;DHT22;53063;39.614;8.814;2023-07-29T05:45:14;22.40;99.90
66271;DHT22;53063;39.614;8.814;2023-07-29T05:47:40;22.70;99.90
66271;DHT22;53063;39.614;8.814;2023-07-29T05:50:07;23.00;99.90
66271;DHT22;53063;39.614;8.814;2023-07-29T05:52:34;23.30;99.90
66271;DHT22;53063;39.614;8.814;2023-07-29T05:55:00;23.70;98.90
66271;DHT22;53063;39.614;8.814;2023-07-29T05:57:26;24.30;98.50
66271;DHT22;53063;39.614;8.814;2023-07-29T05:59:52;24.60;92.60
66271;DHT22;53063;39.614;8.814;2023-07-29T06:02:19;25.60;87.30
66271;DHT22;53063;39.614;8.814;2023-07-29T06:04:45;26.10;83.90
66271;DHT22;53063;39.614;8.814;2023-07-29T06:07:11;26.60;81.10
66271;DHT22;53063;39.614;8.814;2023-07-29T06:09:37;26.90;78.60
66271;DHT22;53063;39.614;8.814;2023-07-29T06:12:03;27.30;77.10
66271;DHT22;53063;39.614;8.814;2023-07-29T06:14:29;26.90;76.90
66271;DHT22;53063;39.614;8.814;2023-07-29T06:16:54;27.20;75.60
66271;DHT22;53063;39.614;8.814;2023-07-29T06:19:20;26.20;79.30
66271;DHT22;53063;39.614;8.814;2023-07-29T06:21:47;25.50;83.30
66271;DHT22;53063;39.614;8.814;2023-07-29T06:24:13;25.40;85.40
66271;DHT22;53063;39.614;8.814;2023-07-29T06:26:39;25.30;86.30
66271;DHT22;53063;39.614;8.814;2023-07-29T06:29:05;25.40;86.40
66271;DHT22;53063;39.614;8.814;2023-07-29T06:31:31;25.40;86.30
66271;DHT22;53063;39.614;8.814;2023-07-29T06:33:58;25.50;86.30
66271;DHT22;53063;39.614;8.814;2023-07-29T06:36:24;25.50;86.00
66271;DHT22;53063;39.614;8.814;2023-07-29T06:38:50;25.90;86.00
66271;DHT22;53063;39.614;8.814;2023-07-29T06:41:16;26.20;83.30
66271;DHT22;53063;39.614;8.814;2023-07-29T06:43:42;26.30;81.40
66271;DHT22;53063;39.614;8.814;2023-07-29T06:46:08;26.40;81.10
66271;DHT22;53063;39.614;8.814;2023-07-29T06:48:34;26.60;79.90
66271;DHT22;53063;39.614;8.814;2023-07-29T06:50:59;26.40;78.90
66271;DHT22;53063;39.614;8.814;2023-07-29T06:53:27;26.60;78.70
66271;DHT22;53063;39.614;8.814;2023-07-29T06:55:53;26.90;76.60
66271;DHT22;53063;39.614;8.814;2023-07-29T06:58:19;26.80;73.30
66271;DHT22;53063;39.614;8.814;2023-07-29T07:00:45;27.00;72.00
66271;DHT22;53063;39.614;8.814;2023-07-29T07:03:11;27.10;70.00
66271;DHT22;53063;39.614;8.814;2023-07-29T07:05:37;27.20;69.00
66271;DHT22;53063;39.614;8.814;2023-07-29T07:08:03;27.40;69.10
66271;DHT22;53063;39.614;8.814;2023-07-29T07:10:29;27.60;69.20
66271;DHT22;53063;39.614;8.814;2023-07-29T07:12:55;27.80;69.10
66271;DHT22;53063;39.614;8.814;2023-07-29T07:15:21;27.70;66.90
66271;DHT22;53063;39.614;8.814;2023-07-29T07:17:46;28.00;66.90
66271;DHT22;53063;39.614;8.814;2023-07-29T07:20:12;27.80;62.10
66271;DHT22;53063;39.614;8.814;2023-07-29T07:22:38;28.20;62.10
66271;DHT22;53063;39.614;8.814;2023-07-29T07:25:05;28.40;61.60
66271;DHT22;53063;39.614;8.814;2023-07-29T07:27:31;28.60;62.20
66271;DHT22;53063;39.614;8.814;2023-07-29T07:29:57;28.70;59.20
66271;DHT22;53063;39.614;8.814;2023-07-29T07:32:23;28.70;58.20
66271;DHT22;53063;39.614;8.814;2023-07-29T07:34:48;28.90;58.40
66271;DHT22;53063;39.614;8.814;2023-07-29T07:37:15;29.20;57.90
66271;DHT22;53063;39.614;8.814;2023-07-29T07:39:41;29.20;59.50
66271;DHT22;53063;39.614;8.814;2023-07-29T07:42:07;29.40;57.70
66271;DHT22;53063;39.614;8.814;2023-07-29T07:44:33;30.00;55.00
66271;DHT22;53063;39.614;8.814;2023-07-29T07:46:59;29.80;52.30
66271;DHT22;53063;39.614;8.814;2023-07-29T07:49:25;30.30;53.70
66271;DHT22;53063;39.614;8.814;2023-07-29T07:51:50;30.60;52.10
66271;DHT22;53063;39.614;8.814;2023-07-29T07:54:16;29.90;51.70
66271;DHT22;53063;39.614;8.814;2023-07-29T07:56:43;30.20;50.70
66271;DHT22;53063;39.614;8.814;2023-07-29T07:59:09;30.80;49.20
66271;DHT22;53063;39.614;8.814;2023-07-29T08:01:36;31.10;47.50
66271;DHT22;53063;39.614;8.814;2023-07-29T08:04:02;31.20;48.90
66271;DHT22;53063;39.614;8.814;2023-07-29T08:06:29;31.50;46.60
66271;DHT22;53063;39.614;8.814;2023-07-29T08:08:55;31.50;47.10
66271;DHT22;53063;39.614;8.814;2023-07-29T08:11:21;31.50;45.10
66271;DHT22;53063;39.614;8.814;2023-07-29T08:13:47;31.20;46.30
66271;DHT22;53063;39.614;8.814;2023-07-29T08:16:13;31.30;47.40
66271;DHT22;53063;39.614;8.814;2023-07-29T08:18:39;31.30;45.40
66271;DHT22;53063;39.614;8.814;2023-07-29T08:21:04;31.70;45.40
66271;DHT22;53063;39.614;8.814;2023-07-29T08:23:35;32.10;44.00
66271;DHT22;53063;39.614;8.814;2023-07-29T08:26:03;32.30;43.40
66271;DHT22;53063;39.614;8.814;2023-07-29T08:28:38;32.30;43.60
66271;DHT22;53063;39.614;8.814;2023-07-29T08:31:04;31.90;44.80
66271;DHT22;53063;39.614;8.814;2023-07-29T08:33:31;32.40;42.60
66271;DHT22;53063;39.614;8.814;2023-07-29T08:35:59;32.60;41.40
66271;DHT22;53063;39.614;8.814;2023-07-29T08:38:25;33.30;42.00
66271;DHT22;53063;39.614;8.814;2023-07-29T08:41:10;33.40;40.70
66271;DHT22;53063;39.614;8.814;2023-07-29T08:43:39;33.20;39.40
66271;DHT22;53063;39.614;8.814;2023-07-29T08:46:06;33.40;39.90
66271;DHT22;53063;39.614;8.814;2023-07-29T08:48:39;33.80;39.80
66271;DHT22;53063;39.614;8.814;2023-07-29T08:51:08;33.60;40.70
66271;DHT22;53063;39.614;8.814;2023-07-29T08:53:35;33.40;39.30
66271;DHT22;53063;39.614;8.814;2023-07-29T08:56:02;33.80;40.10
66271;DHT22;53063;39.614;8.814;2023-07-29T08:58:28;33.90;38.40
66271;DHT22;53063;39.614;8.814;2023-07-29T09:00:55;34.30;38.40
66271;DHT22;53063;39.614;8.814;2023-07-29T09:03:21;34.20;37.90
66271;DHT22;53063;39.614;8.814;2023-07-29T09:05:47;34.40;36.30
66271;DHT22;53063;39.614;8.814;2023-07-29T09:08:14;34.10;36.30
66271;DHT22;53063;39.614;8.814;2023-07-29T09:10:40;34.40;36.30
66271;DHT22;53063;39.614;8.814;2023-07-29T09:13:07;34.50;36.20
66271;DHT22;53063;39.614;8.814;2023-07-29T09:15:36;34.30;36.10
66271;DHT22;53063;39.614;8.814;2023-07-29T09:18:16;34.70;35.90
66271;DHT22;53063;39.614;8.814;2023-07-29T09:20:43;34.20;36.60
66271;DHT22;53063;39.614;8.814;2023-07-29T09:23:10;34.20;38.20
66271;DHT22;53063;39.614;8.814;2023-07-29T09:25:36;34.00;37.80
66271;DHT22;53063;39.614;8.814;2023-07-29T09:28:08;34.30;35.70
66271;DHT22;53063;39.614;8.814;2023-07-29T09:30:35;34.30;35.90
66271;DHT22;53063;39.614;8.814;2023-07-29T09:33:00;34.50;36.20
66271;DHT22;53063;39.614;8.814;2023-07-29T09:35:29;34.70;35.00
66271;DHT22;53063;39.614;8.814;2023-07-29T09:37:55;34.60;34.70
66271;DHT22;53063;39.614;8.814;2023-07-29T09:40:21;34.40;34.50
66271;DHT22;53063;39.614;8.814;2023-07-29T09:42:52;34.80;35.30
66271;DHT22;53063;39.614;8.814;2023-07-29T09:45:25;35.00;34.40
66271;DHT22;53063;39.614;8.814;2023-07-29T09:47:52;34.70;34.80
66271;DHT22;53063;39.614;8.814;2023-07-29T09:50:18;34.80;34.80
66271;DHT22;53063;39.614;8.814;2023-07-29T09:52:44;34.60;35.00
66271;DHT22;53063;39.614;8.814;2023-07-29T09:55:18;34.80;35.60
66271;DHT22;53063;39.614;8.814;2023-07-29T09:57:45;35.00;33.90
66271;DHT22;53063;39.614;8.814;2023-07-29T10:00:11;35.10;33.70
66271;DHT22;53063;39.614;8.814;2023-07-29T10:02:43;35.10;35.00
66271;DHT22;53063;39.614;8.814;2023-07-29T10:05:10;35.30;34.50
66271;DHT22;53063;39.614;8.814;2023-07-29T10:07:39;35.40;33.40
66271;DHT22;53063;39.614;8.814;2023-07-29T10:10:07;35.40;34.50
66271;DHT22;53063;39.614;8.814;2023-07-29T10:12:34;35.20;33.80
66271;DHT22;53063;39.614;8.814;2023-07-29T10:15:05;35.40;32.90
66271;DHT22;53063;39.614;8.814;2023-07-29T10:17:34;35.50;33.10
66271;DHT22;53063;39.614;8.814;2023-07-29T10:20:01;35.80;32.60
66271;DHT22;53063;39.614;8.814;2023-07-29T10:22:33;35.50;32.40
66271;DHT22;53063;39.614;8.814;2023-07-29T10:25:05;35.30;33.30
66271;DHT22;53063;39.614;8.814;2023-07-29T10:27:56;35.50;33.30
66271;DHT22;53063;39.614;8.814;2023-07-29T10:30:24;35.80;33.10
66271;DHT22;53063;39.614;8.814;2023-07-29T10:32:52;35.60;33.50
66271;DHT22;53063;39.614;8.814;2023-07-29T10:35:18;36.10;33.20
66271;DHT22;53063;39.614;8.814;2023-07-29T10:37:45;36.10;32.90
66271;DHT22;53063;39.614;8.814;2023-07-29T10:40:11;35.60;32.80
66271;DHT22;53063;39.614;8.814;2023-07-29T10:42:39;36.00;31.90
66271;DHT22;53063;39.614;8.814;2023-07-29T10:45:24;36.20;31.50
66271;DHT22;53063;39.614;8.814;2023-07-29T10:47:50;36.50;31.40
66271;DHT22;53063;39.614;8.814;2023-07-29T10:50:18;36.20;31.00
66271;DHT22;53063;39.614;8.814;2023-07-29T10:52:49;36.30;30.90
66271;DHT22;53063;39.614;8.814;2023-07-29T10:55:36;36.40;30.80
66271;DHT22;53063;39.614;8.814;2023-07-29T10:58:14;36.80;30.50
66271;DHT22;53063;39.614;8.814;2023-07-29T11:00:44;36.90;30.60
66271;DHT22;53063;39.614;8.814;2023-07-29T11:03:11;36.70;30.20
66271;DHT22;53063;39.614;8.814;2023-07-29T11:05:53;36.70;29.80
66271;DHT22;53063;39.614;8.814;2023-07-29T11:13:29;36.80;30.20
66271;DHT22;53063;39.614;8.814;2023-07-29T11:15:55;36.70;29.70
66271;DHT22;53063;39.614;8.814;2023-07-29T11:18:27;36.70;29.90
66271;DHT22;53063;39.614;8.814;2023-07-29T11:20:54;37.10;30.00
66271;DHT22;53063;39.614;8.814;2023-07-29T11:25:55;37.00;30.90
66271;DHT22;53063;39.614;8.814;2023-07-29T11:28:22;37.20;30.30
66271;DHT22;53063;39.614;8.814;2023-07-29T11:30:49;37.50;30.50
66271;DHT22;53063;39.614;8.814;2023-07-29T11:33:19;37.30;31.10
66271;DHT22;53063;39.614;8.814;2023-07-29T11:35:45;37.10;31.30
66271;DHT22;53063;39.614;8.814;2023-07-29T11:38:15;37.30;30.40
66271;DHT22;53063;39.614;8.814;2023-07-29T11:40:42;36.90;30.20
66271;DHT22;53063;39.614;8.814;2023-07-29T11:43:08;37.00;29.70
66271;DHT22;53063;39.614;8.814;2023-07-29T11:45:34;37.30;30.40
66271;DHT22;53063;39.614;8.814;2023-07-29T11:48:03;37.40;30.00
66271;DHT22;53063;39.614;8.814;2023-07-29T11:50:29;37.40;30.10
66271;DHT22;53063;39.614;8.814;2023-07-29T11:52:55;37.20;30.40
66271;DHT22;53063;39.614;8.814;2023-07-29T11:55:21;37.70;30.30
66271;DHT22;53063;39.614;8.814;2023-07-29T11:57:51;37.50;30.10
66271;DHT22;53063;39.614;8.814;2023-07-29T12:00:17;37.60;30.00
66271;DHT22;53063;39.614;8.814;2023-07-29T12:02:45;37.50;30.80
66271;DHT22;53063;39.614;8.814;2023-07-29T12:05:13;38.00;30.50
66271;DHT22;53063;39.614;8.814;2023-07-29T12:07:39;37.70;30.60
66271;DHT22;53063;39.614;8.814;2023-07-29T12:10:07;37.60;30.60
66271;DHT22;53063;39.614;8.814;2023-07-29T12:12:33;38.10;29.60
66271;DHT22;53063;39.614;8.814;2023-07-29T12:14:59;37.70;29.30
66271;DHT22;53063;39.614;8.814;2023-07-29T12:17:26;38.10;28.80
66271;DHT22;53063;39.614;8.814;2023-07-29T12:19:54;37.60;29.70
66271;DHT22;53063;39.614;8.814;2023-07-29T12:22:21;37.00;30.00
66271;DHT22;53063;39.614;8.814;2023-07-29T12:24:51;37.50;31.00
66271;DHT22;53063;39.614;8.814;2023-07-29T12:27:21;38.20;30.20
66271;DHT22;53063;39.614;8.814;2023-07-29T12:29:47;37.80;30.30
66271;DHT22;53063;39.614;8.814;2023-07-29T12:32:14;37.60;30.00
66271;DHT22;53063;39.614;8.814;2023-07-29T12:34:40;38.00;30.60
66271;DHT22;53063;39.614;8.814;2023-07-29T12:37:07;37.90;32.50
66271;DHT22;53063;39.614;8.814;2023-07-29T12:39:35;37.90;32.50
66271;DHT22;53063;39.614;8.814;2023-07-29T12:42:02;37.70;32.60
66271;DHT22;53063;39.614;8.814;2023-07-29T12:44:33;37.90;32.90
66271;DHT22;53063;39.614;8.814;2023-07-29T12:47:04;37.00;34.60
66271;DHT22;53063;39.614;8.814;2023-07-29T12:49:30;37.50;32.70
66271;DHT22;53063;39.614;8.814;2023-07-29T12:51:58;37.50;34.20
66271;DHT22;53063;39.614;8.814;2023-07-29T12:54:25;37.70;34.20
66271;DHT22;53063;39.614;8.814;2023-07-29T12:56:51;37.30;34.50
66271;DHT22;53063;39.614;8.814;2023-07-29T12:59:17;37.80;34.80
66271;DHT22;53063;39.614;8.814;2023-07-29T13:01:43;37.40;34.40
66271;DHT22;53063;39.614;8.814;2023-07-29T13:04:11;37.00;33.90
66271;DHT22;53063;39.614;8.814;2023-07-29T13:06:38;37.00;35.10
66271;DHT22;53063;39.614;8.814;2023-07-29T13:09:04;36.70;36.70
66271;DHT22;53063;39.614;8.814;2023-07-29T13:11:31;36.80;38.60
66271;DHT22;53063;39.614;8.814;2023-07-29T13:14:00;36.80;37.50
66271;DHT22;53063;39.614;8.814;2023-07-29T13:16:27;36.90;36.00
66271;DHT22;53063;39.614;8.814;2023-07-29T13:18:53;37.00;34.90
66271;DHT22;53063;39.614;8.814;2023-07-29T13:21:19;37.50;35.70
66271;DHT22;53063;39.614;8.814;2023-07-29T13:23:45;36.60;37.60
66271;DHT22;53063;39.614;8.814;2023-07-29T13:26:11;37.20;35.20
66271;DHT22;53063;39.614;8.814;2023-07-29T13:28:37;37.20;34.90
66271;DHT22;53063;39.614;8.814;2023-07-29T13:31:03;37.60;34.50
66271;DHT22;53063;39.614;8.814;2023-07-29T13:33:29;37.80;34.30
66271;DHT22;53063;39.614;8.814;2023-07-29T13:36:00;37.90;34.20
66271;DHT22;53063;39.614;8.814;2023-07-29T13:38:28;37.80;34.10
66271;DHT22;53063;39.614;8.814;2023-07-29T13:40:54;37.30;34.30
66271;DHT22;53063;39.614;8.814;2023-07-29T13:43:20;37.20;35.10
66271;DHT22;53063;39.614;8.814;2023-07-29T13:45:46;37.40;34.90
66271;DHT22;53063;39.614;8.814;2023-07-29T13:48:14;37.50;34.80
66271;DHT22;53063;39.614;8.814;2023-07-29T13:50:40;37.30;34.80
66271;DHT22;53063;39.614;8.814;2023-07-29T13:53:06;37.10;35.00
66271;DHT22;53063;39.614;8.814;2023-07-29T13:55:32;36.90;35.20
66271;DHT22;53063;39.614;8.814;2023-07-29T13:57:58;36.70;35.30
66271;DHT22;53063;39.614;8.814;2023-07-29T14:00:24;36.80;35.50
66271;DHT22;53063;39.614;8.814;2023-07-29T14:02:50;36.60;35.50
66271;DHT22;53063;39.614;8.814;2023-07-29T14:05:16;36.40;35.50
66271;DHT22;53063;39.614;8.814;2023-07-29T14:07:42;36.30;35.90
66271;DHT22;53063;39.614;8.814;2023-07-29T14:10:08;36.40;36.40
66271;DHT22;53063;39.614;8.814;2023-07-29T14:12:34;36.40;35.80
66271;DHT22;53063;39.614;8.814;2023-07-29T14:15:00;36.30;35.90
66271;DHT22;53063;39.614;8.814;2023-07-29T14:17:27;36.30;35.50
66271;DHT22;53063;39.614;8.814;2023-07-29T14:19:53;36.20;35.80
66271;DHT22;53063;39.614;8.814;2023-07-29T14:22:19;36.10;36.50
66271;DHT22;53063;39.614;8.814;2023-07-29T14:24:45;36.20;36.80
66271;DHT22;53063;39.614;8.814;2023-07-29T14:27:11;36.10;35.70
66271;DHT22;53063;39.614;8.814;2023-07-29T14:29:37;36.00;35.60
66271;DHT22;53063;39.614;8.814;2023-07-29T14:32:03;35.80;36.30
66271;DHT22;53063;39.614;8.814;2023-07-29T14:34:29;35.60;37.10
66271;DHT22;53063;39.614;8.814;2023-07-29T14:36:55;35.40;37.70
66271;DHT22;53063;39.614;8.814;2023-07-29T14:39:21;35.40;38.80
66271;DHT22;53063;39.614;8.814;2023-07-29T14:41:47;35.40;37.80
66271;DHT22;53063;39.614;8.814;2023-07-29T14:44:13;35.20;37.90
66271;DHT22;53063;39.614;8.814;2023-07-29T14:46:39;34.90;37.80
66271;DHT22;53063;39.614;8.814;2023-07-29T14:49:05;34.90;38.30
66271;DHT22;53063;39.614;8.814;2023-07-29T14:51:31;35.10;37.70
66271;DHT22;53063;39.614;8.814;2023-07-29T14:53:56;35.10;37.70
66271;DHT22;53063;39.614;8.814;2023-07-29T14:56:23;35.00;38.30
66271;DHT22;53063;39.614;8.814;2023-07-29T14:58:49;34.90;38.60
66271;DHT22;53063;39.614;8.814;2023-07-29T15:01:16;34.90;39.60
66271;DHT22;53063;39.614;8.814;2023-07-29T15:03:42;35.00;38.60
66271;DHT22;53063;39.614;8.814;2023-07-29T15:06:07;34.80;39.10
66271;DHT22;53063;39.614;8.814;2023-07-29T15:08:33;34.70;39.60
66271;DHT22;53063;39.614;8.814;2023-07-29T15:10:59;34.60;40.00
66271;DHT22;53063;39.614;8.814;2023-07-29T15:13:25;34.50;39.70
66271;DHT22;53063;39.614;8.814;2023-07-29T15:15:51;34.40;40.80
66271;DHT22;53063;39.614;8.814;2023-07-29T15:18:17;34.30;40.50
66271;DHT22;53063;39.614;8.814;2023-07-29T15:20:43;34.10;42.80
66271;DHT22;53063;39.614;8.814;2023-07-29T15:23:09;33.90;41.20
66271;DHT22;53063;39.614;8.814;2023-07-29T15:25:35;34.00;40.90
66271;DHT22;53063;39.614;8.814;2023-07-29T15:28:01;33.70;41.00
66271;DHT22;53063;39.614;8.814;2023-07-29T15:30:27;33.70;41.00
66271;DHT22;53063;39.614;8.814;2023-07-29T15:32:53;33.70;42.40
66271;DHT22;53063;39.614;8.814;2023-07-29T15:35:21;33.80;42.50
66271;DHT22;53063;39.614;8.814;2023-07-29T15:37:47;33.80;41.30
66271;DHT22;53063;39.614;8.814;2023-07-29T15:40:14;33.70;42.30
66271;DHT22;53063;39.614;8.814;2023-07-29T15:42:39;33.70;43.20